createdAt,value
2023-04-18T00:00:07.105Z,17.50
2023-04-18T00:00:17.164Z,17.60
2023-04-18T00:00:27.222Z,17.60
2023-04-18T00:00:37.353Z,17.50
2023-04-18T00:00:47.410Z,18.20
2023-04-18T00:00:57.439Z,17.80
2023-04-18T00:01:07.483Z,17.60
2023-04-18T00:01:17.534Z,17.50
2023-04-18T00:01:27.582Z,17.40
2023-04-18T00:01:37.711Z,17.60
2023-04-18T00:01:47.774Z,16.90
2023-04-18T00:01:57.930Z,17.80
2023-04-18T00:02:07.875Z,17.50
2023-04-18T00:02:18.051Z,17.50
2023-04-18T00:02:28.107Z,17.60
2023-04-18T00:02:38.170Z,17.60
2023-04-18T00:02:48.214Z,17.90
2023-04-18T00:02:59.184Z,17.60
2023-04-18T00:03:08.488Z,17.80
2023-04-18T00:03:18.579Z,17.90
2023-04-18T00:03:28.780Z,18.20
2023-04-18T00:03:38.894Z,18.30
2023-04-18T00:03:49.030Z,17.70
2023-04-18T00:03:58.889Z,17.50
2023-04-18T00:04:09.025Z,17.20
2023-04-18T00:04:19.431Z,17.60
2023-04-18T00:04:29.197Z,18.10
2023-04-18T00:04:39.147Z,18.20
2023-04-18T00:04:49.220Z,19.10
2023-04-18T00:04:59.368Z,18.00
2023-04-18T00:05:09.476Z,18.10
2023-04-18T00:05:19.559Z,17.60
2023-04-18T00:05:29.731Z,17.90
2023-04-18T00:05:39.732Z,17.70
2023-04-18T00:05:49.759Z,17.80
2023-04-18T00:05:59.789Z,17.40
2023-04-18T00:06:09.814Z,17.80
2023-04-18T00:06:19.867Z,17.30
2023-04-18T00:06:29.905Z,17.60
2023-04-18T00:06:40.033Z,17.20
2023-04-18T00:06:50.099Z,17.20
2023-04-18T00:07:00.185Z,16.80
2023-04-18T00:07:10.227Z,16.60
2023-04-18T00:07:20.262Z,17.20
2023-04-18T00:07:30.287Z,17.90
2023-04-18T00:07:40.330Z,18.20
2023-04-18T00:07:50.386Z,17.80
2023-04-18T00:08:00.421Z,17.50
2023-04-18T00:08:10.540Z,17.80
2023-04-18T00:08:20.573Z,18.00
2023-04-18T00:08:30.602Z,18.20
2023-04-18T00:08:40.636Z,17.70
2023-04-18T00:08:50.684Z,17.20
2023-04-18T00:09:00.790Z,17.10
2023-04-18T00:09:10.819Z,17.00
2023-04-18T00:09:20.857Z,17.70
2023-04-18T00:09:30.920Z,17.80
2023-04-18T00:09:40.978Z,17.70
2023-04-18T00:09:50.980Z,17.80
2023-04-18T00:10:01.054Z,17.80
2023-04-18T00:10:11.049Z,17.70
2023-04-18T00:10:21.100Z,17.30
2023-04-18T00:10:31.137Z,17.30
2023-04-18T00:10:41.175Z,17.70
2023-04-18T00:10:51.192Z,18.20
2023-04-18T00:11:01.219Z,18.00
2023-04-18T00:11:11.263Z,18.00
2023-04-18T00:11:21.321Z,18.10
2023-04-18T00:11:31.382Z,17.60
2023-04-18T00:11:41.455Z,17.50
2023-04-18T00:11:51.482Z,16.70
2023-04-18T00:12:01.528Z,17.40
2023-04-18T00:12:11.610Z,17.80
2023-04-18T00:12:21.648Z,18.20
2023-04-18T00:12:31.685Z,18.60
2023-04-18T00:12:41.701Z,19.20
2023-04-18T00:12:51.758Z,19.50
2023-04-18T00:13:01.780Z,19.20
2023-04-18T00:13:11.818Z,18.60
2023-04-18T00:13:21.872Z,18.10
2023-04-18T00:13:31.910Z,17.60
2023-04-18T00:13:41.928Z,17.00
2023-04-18T00:13:51.944Z,17.40
2023-04-18T00:14:01.962Z,17.60
2023-04-18T00:14:12.298Z,17.90
2023-04-18T00:14:22.142Z,18.00
2023-04-18T00:14:32.240Z,17.80
2023-04-18T00:14:42.281Z,17.50
2023-04-18T00:14:52.309Z,17.30
2023-04-18T00:15:02.380Z,17.20
2023-04-18T00:15:12.406Z,17.80
2023-04-18T00:15:22.433Z,18.50
2023-04-18T00:15:32.473Z,19.30
2023-04-18T00:15:42.513Z,18.60
2023-04-18T00:15:52.573Z,17.80
2023-04-18T00:16:02.605Z,17.60
2023-04-18T00:16:12.680Z,18.10
2023-04-18T00:16:22.748Z,18.70
2023-04-18T00:16:32.814Z,18.60
2023-04-18T00:16:42.937Z,17.90
2023-04-18T00:16:52.994Z,17.20
2023-04-18T00:17:03.131Z,17.20
2023-04-18T00:17:13.241Z,17.70
2023-04-18T00:17:23.274Z,17.80
2023-04-18T00:17:33.398Z,17.90
2023-04-18T00:17:43.446Z,17.90
2023-04-18T00:17:53.513Z,18.00
2023-04-18T00:18:03.668Z,17.60
2023-04-18T00:18:13.590Z,17.60
2023-04-18T00:18:23.623Z,18.00
2023-04-18T00:18:33.650Z,18.30
2023-04-18T00:18:43.669Z,18.40
2023-04-18T00:18:53.734Z,18.20
2023-04-18T00:19:03.747Z,17.80
2023-04-18T00:19:13.778Z,17.70
2023-04-18T00:19:23.803Z,17.50
2023-04-18T00:19:33.848Z,18.20
2023-04-18T00:19:43.876Z,18.50
2023-04-18T00:19:53.940Z,18.90
2023-04-18T00:20:03.981Z,18.30
2023-04-18T00:20:14.066Z,18.50
2023-04-18T00:20:24.086Z,17.90
2023-04-18T00:20:34.209Z,18.00
2023-04-18T00:20:44.228Z,17.40
2023-04-18T00:20:54.254Z,17.80
2023-04-18T00:21:04.395Z,17.70
2023-04-18T00:21:14.387Z,18.20
2023-04-18T00:21:24.428Z,18.40
2023-04-18T00:21:34.496Z,18.20
2023-04-18T00:21:44.540Z,17.90
2023-04-18T00:21:54.590Z,17.60
2023-04-18T00:22:04.637Z,17.80
2023-04-18T00:22:14.671Z,17.80
2023-04-18T00:22:24.698Z,17.90
2023-04-18T00:22:34.736Z,17.80
2023-04-18T00:22:44.767Z,17.50
2023-04-18T00:22:54.812Z,17.30
2023-04-18T00:23:04.854Z,17.30
2023-04-18T00:23:14.898Z,18.10
2023-04-18T00:23:24.899Z,18.50
2023-04-18T00:23:34.934Z,18.70
2023-04-18T00:23:44.983Z,18.10
2023-04-18T00:23:55.024Z,17.40
2023-04-18T00:24:05.051Z,17.10
2023-04-18T00:24:15.294Z,17.10
2023-04-18T00:24:25.082Z,17.70
2023-04-18T00:24:35.158Z,17.70
2023-04-18T00:24:45.204Z,17.70
2023-04-18T00:24:55.217Z,17.70
2023-04-18T00:25:05.306Z,17.90
2023-04-18T00:25:15.342Z,17.80
2023-04-18T00:25:25.378Z,18.00
2023-04-18T00:25:35.399Z,18.70
2023-04-18T00:25:45.444Z,19.00
2023-04-18T00:25:55.466Z,18.40
2023-04-18T00:26:05.485Z,17.60
2023-04-18T00:26:15.523Z,17.20
2023-04-18T00:26:25.550Z,17.50
2023-04-18T00:26:35.584Z,17.80
2023-04-18T00:26:45.633Z,18.00
2023-04-18T00:26:55.668Z,17.50
2023-04-18T00:27:05.807Z,17.30
2023-04-18T00:27:15.816Z,17.10
2023-04-18T00:27:25.851Z,16.80
2023-04-18T00:27:35.920Z,17.60
2023-04-18T00:27:45.968Z,17.70
2023-04-18T00:27:55.988Z,18.90
2023-04-18T00:28:06.015Z,18.40
2023-04-18T00:28:16.057Z,18.40
2023-04-18T00:28:26.084Z,17.80
2023-04-18T00:28:36.139Z,17.70
2023-04-18T00:28:46.174Z,18.30
2023-04-18T00:28:56.213Z,18.30
2023-04-18T00:29:06.254Z,19.10
2023-04-18T00:29:16.280Z,18.20
2023-04-18T00:29:26.318Z,18.20
2023-04-18T00:29:36.347Z,17.80
2023-04-18T00:29:46.496Z,18.90
2023-04-18T00:29:56.395Z,18.70
2023-04-18T00:30:06.429Z,18.50
2023-04-18T00:30:16.453Z,18.50
2023-04-18T00:30:26.480Z,18.50
2023-04-18T00:30:36.522Z,18.90
2023-04-18T00:30:46.533Z,18.80
2023-04-18T00:30:56.648Z,18.70
2023-04-18T00:31:06.737Z,17.90
2023-04-18T00:31:16.771Z,17.30
2023-04-18T00:31:26.890Z,17.50
2023-04-18T00:31:36.926Z,18.00
2023-04-18T00:31:46.967Z,18.10
2023-04-18T00:31:57.006Z,18.30
2023-04-18T00:32:07.042Z,18.10
2023-04-18T00:32:17.078Z,18.30
2023-04-18T00:32:27.174Z,18.00
2023-04-18T00:32:37.208Z,17.90
2023-04-18T00:32:47.277Z,17.20
2023-04-18T00:32:57.332Z,17.40
2023-04-18T00:33:07.327Z,17.10
2023-04-18T00:33:17.369Z,17.80
2023-04-18T00:33:27.421Z,17.70
2023-04-18T00:33:37.469Z,18.30
2023-04-18T00:33:47.466Z,18.30
2023-04-18T00:33:57.480Z,18.10
2023-04-18T00:34:07.484Z,18.20
2023-04-18T00:34:17.503Z,18.50
2023-04-18T00:34:27.519Z,18.40
2023-04-18T00:34:37.560Z,18.60
2023-04-18T00:34:47.603Z,17.30
2023-04-18T00:34:57.612Z,17.70
2023-04-18T00:35:07.639Z,17.30
2023-04-18T00:35:17.658Z,17.90
2023-04-18T00:35:27.670Z,17.90
2023-04-18T00:35:37.879Z,18.00
2023-04-18T00:35:47.864Z,17.70
2023-04-18T00:35:58.044Z,17.90
2023-04-18T00:36:08.056Z,17.70
2023-04-18T00:36:18.085Z,17.40
2023-04-18T00:36:28.097Z,17.20
2023-04-18T00:36:38.191Z,16.50
2023-04-18T00:36:48.221Z,17.10
2023-04-18T00:36:58.225Z,16.90
2023-04-18T00:37:08.225Z,17.20
2023-04-18T00:37:18.241Z,16.50
2023-04-18T00:37:28.330Z,17.40
2023-04-18T00:37:38.328Z,18.00
2023-04-18T00:37:48.345Z,18.60
2023-04-18T00:37:58.518Z,18.10
2023-04-18T00:38:08.692Z,18.10
2023-04-18T00:38:18.728Z,17.50
2023-04-18T00:38:28.887Z,17.50
2023-04-18T00:38:38.900Z,17.40
2023-04-18T00:38:48.898Z,17.70
2023-04-18T00:38:58.909Z,17.30
2023-04-18T00:39:08.922Z,16.90
2023-04-18T00:39:18.953Z,17.30
2023-04-18T00:39:28.966Z,17.30
2023-04-18T00:39:39.145Z,17.20
2023-04-18T00:39:49.185Z,17.30
2023-04-18T00:39:59.212Z,17.50
2023-04-18T00:40:09.228Z,17.70
2023-04-18T00:40:19.261Z,17.00
2023-04-18T00:40:29.281Z,16.60
2023-04-18T00:40:39.314Z,16.70
2023-04-18T00:40:49.352Z,17.70
2023-04-18T00:40:59.395Z,18.00
2023-04-18T00:41:09.451Z,18.10
2023-04-18T00:41:19.489Z,17.70
2023-04-18T00:41:29.562Z,17.40
2023-04-18T00:41:39.600Z,17.90
2023-04-18T00:41:49.639Z,18.10
2023-04-18T00:41:59.666Z,18.20
2023-04-18T00:42:09.713Z,18.30
2023-04-18T00:42:19.737Z,18.10
2023-04-18T00:42:29.763Z,18.10
2023-04-18T00:42:39.802Z,18.20
2023-04-18T00:42:49.842Z,18.40
2023-04-18T00:42:59.893Z,18.50
2023-04-18T00:43:09.947Z,18.20
2023-04-18T00:43:19.991Z,18.20
2023-04-18T00:43:30.023Z,17.80
2023-04-18T00:43:40.058Z,17.70
2023-04-18T00:43:50.087Z,17.90
2023-04-18T00:44:00.156Z,18.50
2023-04-18T00:44:10.171Z,18.60
2023-04-18T00:44:20.202Z,18.50
2023-04-18T00:44:30.245Z,18.00
2023-04-18T00:44:40.273Z,18.20
2023-04-18T00:44:50.315Z,18.10
2023-04-18T00:45:00.365Z,18.40
2023-04-18T00:45:10.385Z,18.20
2023-04-18T00:45:20.414Z,17.90
2023-04-18T00:45:30.467Z,17.80
2023-04-18T00:45:40.496Z,17.30
2023-04-18T00:45:50.563Z,17.70
2023-04-18T00:46:00.628Z,17.80
2023-04-18T00:46:10.712Z,18.20
2023-04-18T00:46:20.772Z,18.00
2023-04-18T00:46:30.862Z,17.60
2023-04-18T00:46:41.022Z,17.50
2023-04-18T00:46:50.954Z,17.40
2023-04-18T00:47:00.983Z,17.50
2023-04-18T00:47:11.048Z,17.90
2023-04-18T00:47:21.103Z,18.30
2023-04-18T00:47:31.172Z,18.70
2023-04-18T00:47:41.252Z,18.20
2023-04-18T00:47:51.315Z,18.00
2023-04-18T00:48:01.412Z,17.30
2023-04-18T00:48:11.424Z,17.00
2023-04-18T00:48:21.450Z,17.00
2023-04-18T00:48:31.495Z,17.00
2023-04-18T00:48:41.523Z,17.30
2023-04-18T00:48:51.607Z,17.80
2023-04-18T00:49:01.654Z,18.60
2023-04-18T00:49:11.707Z,19.00
2023-04-18T00:49:21.736Z,18.70
2023-04-18T00:49:31.775Z,17.90
2023-04-18T00:49:41.796Z,17.90
2023-04-18T00:49:51.844Z,17.70
2023-04-18T00:50:01.866Z,17.00
2023-04-18T00:50:11.912Z,16.40
2023-04-18T00:50:21.959Z,16.50
2023-04-18T00:50:31.991Z,16.80
2023-04-18T00:50:42.045Z,16.60
2023-04-18T00:50:52.084Z,16.90
2023-04-18T00:51:02.145Z,17.60
2023-04-18T00:51:12.168Z,18.20
2023-04-18T00:51:22.257Z,17.10
2023-04-18T00:51:32.305Z,16.00
2023-04-18T00:51:42.377Z,15.70
2023-04-18T00:51:52.413Z,16.40
2023-04-18T00:52:02.453Z,17.40
2023-04-18T00:52:12.509Z,17.80
2023-04-18T00:52:22.566Z,17.70
2023-04-18T00:52:32.603Z,17.90
2023-04-18T00:52:42.639Z,18.10
2023-04-18T00:52:52.671Z,18.10
2023-04-18T00:53:02.710Z,17.40
2023-04-18T00:53:12.752Z,16.90
2023-04-18T00:53:22.780Z,17.30
2023-04-18T00:53:32.837Z,17.00
2023-04-18T00:53:42.934Z,17.40
2023-04-18T00:53:52.986Z,17.50
2023-04-18T00:54:03.024Z,17.70
2023-04-18T00:54:13.403Z,18.10
2023-04-18T00:54:23.212Z,18.00
2023-04-18T00:54:33.289Z,17.70
2023-04-18T00:54:43.323Z,17.60
2023-04-18T00:54:53.361Z,17.20
2023-04-18T00:55:03.410Z,17.20
2023-04-18T00:55:13.537Z,16.80
2023-04-18T00:55:23.501Z,16.90
2023-04-18T00:55:33.544Z,17.50
2023-04-18T00:55:43.600Z,18.00
2023-04-18T00:55:53.646Z,18.40
2023-04-18T00:56:03.684Z,18.10
2023-04-18T00:56:13.739Z,16.90
2023-04-18T00:56:23.831Z,17.20
2023-04-18T00:56:33.837Z,17.50
2023-04-18T00:56:43.874Z,18.40
2023-04-18T00:56:53.938Z,18.10
2023-04-18T00:57:04.081Z,17.80
2023-04-18T00:57:14.098Z,17.10
2023-04-18T00:57:24.130Z,17.80
2023-04-18T00:57:34.173Z,17.40
2023-04-18T00:57:44.195Z,18.00
2023-04-18T00:57:54.253Z,17.90
2023-04-18T00:58:04.334Z,18.40
2023-04-18T00:58:14.360Z,18.30
2023-04-18T00:58:24.403Z,17.80
2023-04-18T00:58:34.435Z,17.70
2023-04-18T00:58:44.470Z,17.50
2023-04-18T00:58:54.508Z,17.30
2023-04-18T00:59:04.540Z,17.10
2023-04-18T00:59:14.574Z,17.70
2023-04-18T00:59:24.645Z,18.30
2023-04-18T00:59:34.748Z,18.60
2023-04-18T00:59:44.781Z,17.60
2023-04-18T00:59:54.854Z,16.60
2023-04-18T01:00:04.921Z,17.00
2023-04-18T01:00:14.946Z,16.90
2023-04-18T01:00:25.087Z,17.30
2023-04-18T01:00:35.157Z,17.20
2023-04-18T01:00:45.181Z,17.90
2023-04-18T01:00:55.232Z,17.10
2023-04-18T01:01:05.307Z,16.60
2023-04-18T01:01:15.334Z,16.70
2023-04-18T01:01:25.352Z,17.00
2023-04-18T01:01:35.456Z,17.20
2023-04-18T01:01:45.582Z,17.00
2023-04-18T01:01:55.738Z,17.30
2023-04-18T01:02:05.831Z,17.40
2023-04-18T01:02:15.859Z,17.10
2023-04-18T01:02:25.933Z,17.60
2023-04-18T01:02:35.955Z,17.70
2023-04-18T01:02:45.912Z,18.20
2023-04-18T01:02:56.266Z,17.80
2023-04-18T01:03:06.232Z,17.80
2023-04-18T01:03:16.315Z,17.60
2023-04-18T01:03:26.286Z,17.30
2023-04-18T01:03:36.443Z,17.90
2023-04-18T01:03:46.467Z,18.40
2023-04-18T01:03:56.505Z,18.80
2023-04-18T01:04:06.468Z,18.20
2023-04-18T01:04:16.792Z,17.80
2023-04-18T01:04:26.785Z,18.00
2023-04-18T01:04:36.709Z,18.10
2023-04-18T01:04:46.711Z,17.60
2023-04-18T01:04:56.744Z,17.60
2023-04-18T01:05:06.802Z,18.20
2023-04-18T01:05:16.835Z,18.30
2023-04-18T01:05:26.891Z,17.30
2023-04-18T01:05:36.932Z,17.20
2023-04-18T01:05:46.941Z,18.00
2023-04-18T01:05:56.951Z,18.40
2023-04-18T01:06:07.026Z,18.40
2023-04-18T01:06:17.042Z,18.40
2023-04-18T01:06:27.062Z,18.10
2023-04-18T01:06:37.159Z,18.00
2023-04-18T01:06:47.190Z,17.80
2023-04-18T01:06:57.195Z,18.20
2023-04-18T01:07:07.390Z,18.50
2023-04-18T01:07:17.422Z,19.10
2023-04-18T01:07:27.455Z,19.20
2023-04-18T01:07:37.489Z,18.50
2023-04-18T01:07:47.514Z,17.70
2023-04-18T01:07:57.545Z,16.90
2023-04-18T01:08:07.589Z,16.90
2023-04-18T01:08:17.636Z,17.30
2023-04-18T01:08:27.671Z,18.50
2023-04-18T01:08:37.714Z,18.50
2023-04-18T01:08:47.720Z,18.40
2023-04-18T01:08:57.745Z,18.30
2023-04-18T06:52:39.762Z,15.10
2023-04-18T06:52:49.817Z,16.60
2023-04-18T06:52:59.885Z,16.10
2023-04-18T06:53:09.926Z,16.90
2023-04-18T06:53:20.015Z,16.50
2023-04-18T06:53:30.056Z,17.80
2023-04-18T06:53:40.090Z,18.60
2023-04-18T06:53:50.150Z,19.40
2023-04-18T06:54:00.235Z,19.40
2023-04-18T06:54:10.295Z,18.90
2023-04-18T06:54:20.341Z,19.20
2023-04-18T06:54:30.376Z,19.00
2023-04-18T06:54:40.418Z,19.30
2023-04-18T06:54:50.470Z,18.70
2023-04-18T06:55:00.556Z,18.50
2023-04-18T06:55:10.604Z,18.80
2023-04-18T06:55:20.679Z,18.80
2023-04-18T06:55:30.783Z,18.40
2023-04-18T06:55:40.864Z,17.60
2023-04-18T06:55:50.901Z,18.10
2023-04-18T06:56:00.966Z,18.50
2023-04-18T06:56:11.007Z,18.70
2023-04-18T06:56:21.053Z,18.40
2023-04-18T06:56:31.149Z,18.70
2023-04-18T06:56:41.190Z,18.10
2023-04-18T06:56:51.277Z,17.80
2023-04-18T06:57:01.308Z,17.30
2023-04-18T06:57:11.387Z,17.70
2023-04-18T06:57:21.439Z,17.50
2023-04-18T06:57:31.517Z,16.80
2023-04-18T06:57:41.637Z,16.50
2023-04-18T06:57:51.656Z,16.30
2023-04-18T06:58:01.690Z,16.40
2023-04-18T06:58:11.762Z,16.20
2023-04-18T06:58:21.774Z,16.80
2023-04-18T06:58:31.796Z,16.90
2023-04-18T06:58:41.871Z,17.10
2023-04-18T06:58:51.921Z,16.60
2023-04-18T06:59:01.958Z,17.20
2023-04-18T06:59:12.120Z,16.80
2023-04-18T06:59:22.118Z,17.00
2023-04-18T06:59:32.156Z,16.60
2023-04-18T06:59:42.179Z,16.70
2023-04-18T06:59:52.212Z,16.40
2023-04-18T07:00:02.294Z,16.40
2023-04-18T07:00:12.271Z,16.90
2023-04-18T07:00:22.281Z,17.00
2023-04-18T07:00:32.349Z,17.30
2023-04-18T07:00:42.390Z,16.80
2023-04-18T07:00:52.454Z,16.90
2023-04-18T07:01:02.509Z,16.30
2023-04-18T07:01:12.532Z,16.50
2023-04-18T07:01:22.537Z,16.70
2023-04-18T07:01:32.730Z,17.30
2023-04-18T07:01:42.648Z,17.00
2023-04-18T07:01:52.788Z,17.00
2023-04-18T07:02:02.717Z,16.00
2023-04-18T07:02:12.777Z,16.90
2023-04-18T07:02:22.864Z,17.10
2023-04-18T07:02:32.884Z,17.60
2023-04-18T07:02:42.935Z,17.40
2023-04-18T07:02:52.999Z,17.80
2023-04-18T07:03:03.159Z,17.70
2023-04-18T07:03:13.467Z,16.90
2023-04-18T07:03:23.156Z,16.00
2023-04-18T07:03:33.156Z,16.10
2023-04-18T07:03:43.355Z,16.10
2023-04-18T07:03:53.355Z,16.50
2023-04-18T07:04:03.343Z,16.80
2023-04-18T07:04:13.780Z,17.10
2023-04-18T07:04:23.621Z,17.20
2023-04-18T07:04:33.581Z,17.80
2023-04-18T07:04:43.666Z,18.60
2023-04-18T07:04:53.584Z,18.30
2023-04-18T07:05:03.642Z,17.90
2023-04-18T07:05:13.762Z,16.60
2023-04-18T07:05:23.819Z,16.20
2023-04-18T07:05:33.868Z,15.80
2023-04-18T07:05:43.922Z,16.40
2023-04-18T07:05:54.013Z,16.60
2023-04-18T07:06:04.085Z,16.20
2023-04-18T07:06:14.220Z,16.30
2023-04-18T07:06:24.303Z,15.80
2023-04-18T07:06:34.368Z,17.10
2023-04-18T07:06:44.435Z,16.60
2023-04-18T07:06:54.482Z,17.00
2023-04-18T07:07:04.557Z,16.30
2023-04-18T07:07:14.613Z,16.80
2023-04-18T07:07:24.703Z,16.70
2023-04-18T07:07:34.764Z,16.70
2023-04-18T07:07:44.886Z,16.60
2023-04-18T07:07:54.952Z,16.90
2023-04-18T07:08:04.998Z,16.80
2023-04-18T07:08:15.035Z,17.00
2023-04-18T07:08:25.098Z,16.60
2023-04-18T07:08:35.162Z,16.50
2023-04-18T07:08:45.214Z,15.80
2023-04-18T07:08:55.285Z,15.70
2023-04-18T07:09:05.301Z,15.90
2023-04-18T07:09:15.336Z,16.10
2023-04-18T07:09:25.389Z,16.40
2023-04-18T07:09:35.476Z,15.90
2023-04-18T07:09:45.516Z,16.40
2023-04-18T07:09:55.582Z,15.60
2023-04-18T07:10:05.607Z,15.80
2023-04-18T07:10:15.652Z,14.70
2023-04-18T07:10:25.712Z,15.20
2023-04-18T07:10:35.746Z,15.20
2023-04-18T07:10:45.791Z,16.30
2023-04-18T07:10:55.824Z,16.50
2023-04-18T07:11:05.857Z,16.60
2023-04-18T07:11:15.907Z,15.90
2023-04-18T07:11:25.951Z,16.20
2023-04-18T07:11:36.012Z,16.60
2023-04-18T07:11:46.080Z,17.10
2023-04-18T07:11:56.117Z,17.10
2023-04-18T07:12:06.154Z,16.50
2023-04-18T07:12:16.193Z,16.40
2023-04-18T07:12:26.247Z,15.80
2023-04-18T07:12:36.298Z,16.10
2023-04-18T07:12:46.342Z,15.90
2023-04-18T07:12:56.399Z,16.40
2023-04-18T07:13:06.446Z,16.10
2023-04-18T07:13:16.496Z,15.80
2023-04-18T07:13:26.542Z,15.90
2023-04-18T07:13:36.627Z,15.90
2023-04-18T07:13:46.683Z,16.20
2023-04-18T07:13:56.747Z,15.50
2023-04-18T07:14:06.799Z,15.70
2023-04-18T07:14:17.048Z,16.10
2023-04-18T07:14:26.953Z,16.80
2023-04-18T07:14:37.012Z,16.90
2023-04-18T07:14:47.045Z,15.80
2023-04-18T07:14:57.117Z,15.40
2023-04-18T07:15:07.148Z,15.80
2023-04-18T07:15:17.199Z,16.20
2023-04-18T07:15:27.278Z,15.90
2023-04-18T07:15:37.379Z,15.50
2023-04-18T07:15:47.422Z,16.00
2023-04-18T07:15:57.495Z,16.40
2023-04-18T07:16:07.541Z,16.60
2023-04-18T07:16:17.614Z,15.70
2023-04-18T07:16:27.676Z,16.10
2023-04-18T07:16:37.861Z,15.80
2023-04-18T07:16:47.841Z,16.70
2023-04-18T07:16:57.906Z,16.00
2023-04-18T07:17:07.972Z,16.10
2023-04-18T07:17:18.075Z,16.30
2023-04-18T07:17:28.120Z,16.90
2023-04-18T07:17:38.257Z,16.90
2023-04-18T07:17:48.207Z,16.90
2023-04-18T07:17:58.271Z,17.00
2023-04-18T07:18:08.356Z,16.10
2023-04-18T07:18:26.760Z,15.30
2023-04-18T07:18:37.299Z,15.30
2023-04-18T07:18:40.294Z,16.20
2023-04-18T07:18:50.335Z,16.30
2023-04-18T07:19:00.387Z,15.80
2023-04-18T07:19:10.438Z,15.70
2023-04-18T07:19:20.500Z,17.00
2023-04-18T07:19:30.542Z,17.50
2023-04-18T07:19:40.624Z,16.60
2023-04-18T07:19:50.735Z,15.60
2023-04-18T07:20:00.772Z,15.20
2023-04-18T07:20:12.239Z,15.20
2023-04-18T07:20:20.892Z,15.60
2023-04-18T07:20:30.922Z,15.70
2023-04-18T07:20:40.979Z,15.80
2023-04-18T07:20:51.028Z,15.90
2023-04-18T07:21:01.075Z,15.70
2023-04-18T07:21:11.165Z,15.70
2023-04-18T07:21:21.208Z,15.80
2023-04-18T07:21:31.252Z,16.30
2023-04-18T07:21:41.287Z,16.30
2023-04-18T07:21:51.384Z,15.80
2023-04-18T07:22:01.484Z,15.00
2023-04-18T07:22:11.533Z,14.70
2023-04-18T07:22:21.584Z,14.40
2023-04-18T07:22:31.644Z,14.40
2023-04-18T07:22:41.780Z,15.10
2023-04-18T07:22:51.816Z,15.30
2023-04-18T07:23:01.887Z,15.80
2023-04-18T07:23:11.981Z,16.00
2023-04-18T07:23:22.021Z,16.30
2023-04-18T07:23:32.098Z,15.90
2023-04-18T07:23:42.138Z,16.10
2023-04-18T07:23:52.228Z,17.00
2023-04-18T07:24:02.280Z,16.90
2023-04-18T07:24:12.572Z,16.90
2023-04-18T07:24:22.281Z,16.20
2023-04-18T07:24:32.325Z,16.30
2023-04-18T07:24:42.459Z,16.10
2023-04-18T07:24:52.511Z,15.80
2023-04-18T07:25:02.557Z,15.70
2023-04-18T07:25:12.626Z,15.10
2023-04-18T07:25:22.699Z,15.50
2023-04-18T07:25:32.744Z,15.50
2023-04-18T07:25:42.786Z,16.30
2023-04-18T07:25:52.832Z,15.70
2023-04-18T07:26:03.099Z,15.80
2023-04-18T07:26:12.896Z,15.60
2023-04-18T07:26:22.993Z,16.20
2023-04-18T07:26:33.108Z,15.80
2023-04-18T07:26:43.168Z,15.30
2023-04-18T07:26:54.904Z,15.10
2023-04-18T07:27:03.365Z,14.80
2023-04-18T07:27:13.378Z,14.90
2023-04-18T07:27:23.424Z,15.10
2023-04-18T07:27:33.452Z,15.70
2023-04-18T07:27:43.554Z,15.60
2023-04-18T07:27:53.606Z,15.60
2023-04-18T07:28:03.646Z,15.60
2023-04-18T07:28:13.681Z,16.30
2023-04-18T07:28:23.762Z,16.10
2023-04-18T07:28:33.806Z,16.10
2023-04-18T07:28:43.846Z,16.10
2023-04-18T07:28:53.892Z,16.50
2023-04-18T07:29:03.996Z,16.40
2023-04-18T07:29:14.054Z,16.00
2023-04-18T07:29:24.150Z,16.10
2023-04-18T07:29:34.231Z,16.30
2023-04-18T07:29:44.280Z,16.50
2023-04-18T07:29:54.318Z,15.80
2023-04-18T07:30:04.419Z,15.60
2023-04-18T07:30:14.459Z,16.20
2023-04-18T07:30:24.529Z,16.30
2023-04-18T07:30:34.562Z,16.10
2023-04-18T07:30:44.756Z,15.20
2023-04-18T07:30:54.718Z,14.90
2023-04-18T07:31:04.797Z,14.80
2023-04-18T07:31:14.851Z,14.80
2023-04-18T07:31:24.932Z,14.80
2023-04-18T07:31:34.983Z,14.60
2023-04-18T07:31:45.014Z,14.70
2023-04-18T07:31:55.040Z,15.00
2023-04-18T07:32:06.885Z,15.60
2023-04-18T07:32:15.173Z,15.90
2023-04-18T07:32:25.227Z,16.00
2023-04-18T07:32:35.286Z,15.90
2023-04-18T07:32:45.318Z,15.50
2023-04-18T07:32:55.468Z,15.40
2023-04-18T07:33:05.685Z,15.60
2023-04-18T07:33:15.521Z,15.90
2023-04-18T07:33:25.562Z,15.30
2023-04-18T07:33:35.629Z,15.20
2023-04-18T07:33:45.673Z,14.90
2023-04-18T07:33:55.768Z,15.40
2023-04-18T07:34:05.793Z,15.30
2023-04-18T07:34:16.088Z,15.40
2023-04-18T07:34:25.972Z,15.20
2023-04-18T07:34:36.092Z,15.00
2023-04-18T07:34:46.110Z,15.10
2023-04-18T07:34:56.164Z,15.20
2023-04-18T07:35:06.213Z,14.70
2023-04-18T07:35:16.244Z,14.20
2023-04-18T07:35:26.365Z,14.80
2023-04-18T07:35:36.385Z,14.80
2023-04-18T07:35:46.462Z,15.00
2023-04-18T07:35:56.521Z,14.60
2023-04-18T07:36:06.570Z,16.40
2023-04-18T07:36:16.634Z,19.10
2023-04-18T07:36:26.654Z,20.00
2023-04-18T07:36:36.717Z,19.00
2023-04-18T07:36:46.794Z,16.20
2023-04-18T07:36:56.912Z,15.40
2023-04-18T07:37:06.957Z,15.10
2023-04-18T07:37:17.004Z,16.00
2023-04-18T07:37:27.169Z,16.10
2023-04-18T07:37:37.209Z,16.60
2023-04-18T07:37:47.274Z,15.90
2023-04-18T07:37:57.341Z,16.20
2023-04-18T07:38:07.392Z,15.50
2023-04-18T07:38:17.436Z,15.70
2023-04-18T07:38:27.550Z,15.20
2023-04-18T07:38:37.644Z,15.30
2023-04-18T07:38:47.667Z,15.40
2023-04-18T07:38:57.771Z,16.10
2023-04-18T07:39:07.799Z,16.50
2023-04-18T07:39:17.871Z,16.10
2023-04-18T07:39:27.980Z,15.50
2023-04-18T07:39:38.022Z,15.30
2023-04-18T07:39:48.810Z,15.80
2023-04-18T07:39:58.059Z,16.50
2023-04-18T07:40:08.116Z,16.60
2023-04-18T07:40:18.162Z,16.10
2023-04-18T07:40:28.260Z,15.90
2023-04-18T07:40:38.376Z,15.80
2023-04-18T07:40:58.546Z,15.60
2023-04-18T07:41:08.665Z,15.50
2023-04-18T07:41:18.753Z,15.40
2023-04-18T07:41:28.803Z,15.20
2023-04-18T07:41:38.883Z,15.50
2023-04-18T07:41:48.834Z,14.80
2023-04-18T07:41:58.873Z,15.50
2023-04-18T07:42:08.926Z,15.00
2023-04-18T07:42:18.972Z,15.80
2023-04-18T07:42:29.029Z,15.30
2023-04-18T07:42:39.080Z,15.40
2023-04-18T07:42:49.146Z,15.10
2023-04-18T07:42:59.214Z,15.90
2023-04-18T07:43:09.268Z,16.60
2023-04-18T07:43:20.796Z,17.10
2023-04-18T07:43:29.434Z,17.80
2023-04-18T07:43:39.510Z,17.90
2023-04-18T07:43:49.558Z,18.00
2023-04-18T07:43:59.611Z,17.20
2023-04-18T07:44:09.659Z,16.90
2023-04-18T07:44:19.750Z,17.00
2023-04-18T07:44:29.805Z,16.60
2023-04-18T07:44:39.853Z,17.10
2023-04-18T07:44:49.925Z,16.50
2023-04-18T07:45:00.047Z,16.20
2023-04-18T07:45:10.096Z,15.90
2023-04-18T07:45:20.129Z,15.80
2023-04-18T07:45:30.183Z,15.60
2023-04-18T07:45:40.302Z,15.00
2023-04-18T07:45:50.367Z,15.60
2023-04-18T07:46:00.473Z,15.30
2023-04-18T07:46:10.518Z,15.20
2023-04-18T07:46:20.652Z,14.70
2023-04-18T07:46:30.578Z,15.40
2023-04-18T07:46:40.756Z,15.60
2023-04-18T07:46:50.632Z,15.20
2023-04-18T07:47:00.668Z,15.10
2023-04-18T07:47:10.802Z,15.00
2023-04-18T07:47:22.421Z,15.30
2023-04-18T07:47:31.640Z,14.90
2023-04-18T07:47:40.958Z,15.00
2023-04-18T07:47:51.029Z,15.60
2023-04-18T07:48:01.071Z,15.90
2023-04-18T07:48:11.344Z,16.80
2023-04-18T07:48:21.239Z,16.60
2023-04-18T07:48:31.280Z,16.60
2023-04-18T07:48:41.315Z,16.00
2023-04-18T07:48:51.367Z,16.60
2023-04-18T07:49:01.417Z,16.60
2023-04-18T07:49:11.669Z,16.10
2023-04-18T07:49:21.611Z,14.90
2023-04-18T07:49:31.674Z,15.10
2023-04-18T07:49:41.798Z,15.40
2023-04-18T07:49:51.840Z,16.00
2023-04-18T07:50:01.952Z,15.20
2023-04-18T07:50:12.050Z,15.90
2023-04-18T07:50:22.113Z,16.00
2023-04-18T07:50:32.187Z,16.60
2023-04-18T07:50:42.245Z,15.60
2023-04-18T07:50:52.311Z,15.30
2023-04-18T07:51:02.353Z,15.40
2023-04-18T07:51:12.440Z,15.80
2023-04-18T07:51:22.504Z,16.20
2023-04-18T07:51:32.566Z,16.20
2023-04-18T07:51:42.611Z,16.30
2023-04-18T07:51:52.658Z,16.20
2023-04-18T07:52:02.802Z,15.90
2023-04-18T07:52:12.875Z,15.10
2023-04-18T07:52:22.912Z,15.00
2023-04-18T07:52:33.036Z,15.70
2023-04-18T07:52:43.085Z,15.90
2023-04-18T07:52:53.154Z,15.40
2023-04-18T07:53:03.209Z,14.80
2023-04-18T07:53:13.249Z,15.10